Time;durP1;ratioP1;P1;durP2;ratioP2;P2;SDS_P1;SDS_P2;PMS_P1;PMS_P2;Temp;Humidity;BMP_temperature;BMP_pressure;BME280_temperature;BME280_humidity;BME280_pressure;Samples;Min_cycle;Max_cycle;Signal;HPM_P1;HPM_P2
2023/06/26 04:02:12;;;;;;;4.60;3.30;;;19.40;97.30;;;;;;5214994;23;20509;-89
2023/06/26 04:04:37;;;;;;;4.63;2.43;;;19.40;97.30;;;;;;4936733;28;20468;-89
2023/06/26 04:07:03;;;;;;;3.63;2.40;;;19.40;97.30;;;;;;4949164;29;20850;-89
2023/06/26 04:09:29;;;;;;;3.00;2.70;;;19.40;97.30;;;;;;4934313;29;20670;-89
2023/06/26 04:11:54;;;;;;;3.30;2.60;;;19.40;97.30;;;;;;4937418;29;20244;-88
2023/06/26 04:14:20;;;;;;;9.20;2.80;;;19.40;97.30;;;;;;4926890;29;20217;-89
2023/06/26 04:16:45;;;;;;;16.17;2.30;;;19.50;97.30;;;;;;4930778;29;20208;-89
2023/06/26 04:19:11;;;;;;;10.10;4.77;;;19.50;97.30;;;;;;4931200;29;20222;-89
2023/06/26 04:21:36;;;;;;;13.30;2.93;;;19.50;97.30;;;;;;4924033;29;20204;-88
2023/06/26 04:24:02;;;;;;;6.23;3.87;;;19.60;97.30;;;;;;4934108;29;20439;-89
2023/06/26 04:26:28;;;;;;;3.47;3.27;;;19.60;97.30;;;;;;4925002;29;20180;-89
2023/06/26 04:28:59;;;;;;;5.10;2.50;;;19.60;97.30;;;;;;4930025;29;20678;-89
2023/06/26 04:31:26;;;;;;;22.67;5.40;;;19.60;97.30;;;;;;4914329;29;20475;-88
2023/06/26 04:33:54;;;;;;;8.53;3.43;;;19.60;97.30;;;;;;4930232;29;20468;-89
2023/06/26 04:36:20;;;;;;;4.47;3.20;;;19.60;97.30;;;;;;4917020;29;20464;-88
2023/06/26 04:38:48;;;;;;;4.50;3.33;;;19.70;97.30;;;;;;4915820;29;20424;-89
2023/06/26 04:41:13;;;;;;;5.80;3.63;;;19.70;97.30;;;;;;4945713;28;20455;-89
2023/06/26 04:43:39;;;;;;;3.80;2.50;;;19.70;97.30;;;;;;4915717;29;20421;-88
2023/06/26 04:46:05;;;;;;;4.00;3.10;;;19.80;97.30;;;;;;4933284;29;20180;-89
2023/06/26 04:48:31;;;;;;;3.90;3.27;;;19.80;97.30;;;;;;4916629;29;20267;-89
2023/06/26 04:50:58;;;;;;;9.27;3.80;;;19.90;97.30;;;;;;4923926;29;20571;-88
2023/06/26 04:53:27;;;;;;;4.07;2.80;;;19.90;97.30;;;;;;4922405;29;20259;-89
2023/06/26 04:55:52;;;;;;;17.30;3.20;;;20.00;97.30;;;;;;4907264;29;20429;-89
2023/06/26 04:58:19;;;;;;;5.10;3.67;;;20.00;97.30;;;;;;4925367;29;20415;-89
2023/06/26 05:00:44;;;;;;;4.50;2.20;;;20.10;97.30;;;;;;4922945;29;20561;-89
2023/06/26 05:03:12;;;;;;;2.17;2.00;;;20.10;97.30;;;;;;4933558;29;20415;-89
2023/06/26 05:05:37;;;;;;;6.23;2.17;;;20.20;97.30;;;;;;4915914;29;20308;-89
2023/06/26 05:08:14;;;;;;;4.73;2.77;;;20.20;97.30;;;;;;4929811;29;21026;-89
2023/06/26 05:10:39;;;;;;;4.20;1.93;;;20.30;97.30;;;;;;4931728;29;20227;-88
2023/06/26 05:13:05;;;;;;;4.10;2.40;;;20.40;97.30;;;;;;4930188;29;20428;-89
2023/06/26 05:15:30;;;;;;;6.43;3.13;;;20.40;97.30;;;;;;4921966;29;20196;-88
2023/06/26 05:17:56;;;;;;;6.13;3.30;;;20.50;97.30;;;;;;4914776;29;20211;-89
2023/06/26 05:20:21;;;;;;;2.90;2.57;;;20.50;97.30;;;;;;4912798;29;20223;-89
2023/06/26 05:22:51;;;;;;;5.17;3.50;;;20.60;97.30;;;;;;4924053;29;20196;-89
2023/06/26 05:25:21;;;;;;;3.27;2.27;;;20.70;97.30;;;;;;4931500;29;20216;-89
2023/06/26 05:27:50;;;;;;;3.27;2.80;;;20.70;97.30;;;;;;4914015;29;20441;-88
2023/06/26 05:30:19;;;;;;;5.13;3.40;;;20.70;97.30;;;;;;4929883;29;20994;-89
2023/06/26 05:32:53;;;;;;;8.30;4.47;;;20.80;97.30;;;;;;4931874;29;20427;-89
2023/06/26 05:35:22;;;;;;;4.93;3.00;;;20.80;97.30;;;;;;4913501;29;20433;-89
2023/06/26 05:37:51;;;;;;;5.07;3.00;;;20.90;97.30;;;;;;4913125;29;20519;-89
2023/06/26 05:40:20;;;;;;;6.40;3.50;;;20.90;97.30;;;;;;4926489;29;20441;-89
2023/06/26 05:43:02;;;;;;;2.13;1.97;;;21.00;97.30;;;;;;4922131;29;20420;-89
2023/06/26 05:45:31;;;;;;;3.67;2.60;;;21.00;97.30;;;;;;4921515;29;20479;-89
2023/06/26 05:47:58;;;;;;;8.03;3.63;;;21.10;97.30;;;;;;4928451;29;20484;-85
2023/06/26 05:50:30;;;;;;;4.90;3.80;;;21.20;97.30;;;;;;4924274;29;20550;-91
2023/06/26 05:53:12;;;;;;;3.80;2.90;;;21.20;97.30;;;;;;4905713;29;20429;-88
2023/06/26 05:55:42;;;;;;;4.33;2.57;;;21.30;97.30;;;;;;4923408;29;20480;-90
2023/06/26 05:58:11;;;;;;;5.40;3.80;;;21.30;97.30;;;;;;4913458;29;20790;-88
2023/06/26 06:00:43;;;;;;;5.40;3.60;;;21.40;97.30;;;;;;4923157;29;20424;-90
2023/06/26 06:03:11;;;;;;;4.03;3.13;;;21.40;97.30;;;;;;4933307;29;20438;-91
2023/06/26 06:05:40;;;;;;;8.40;3.97;;;21.40;97.30;;;;;;4924475;29;20455;-90
2023/06/26 06:08:13;;;;;;;2.73;2.53;;;21.50;97.30;;;;;;4924462;29;20511;-91
2023/06/26 06:10:41;;;;;;;2.60;2.33;;;21.50;97.30;;;;;;4924832;29;20570;-88
2023/06/26 06:13:10;;;;;;;2.73;2.57;;;21.60;97.30;;;;;;4919284;29;20421;-89
2023/06/26 06:15:43;;;;;;;8.17;2.80;;;21.60;97.30;;;;;;4913573;29;20870;-88
2023/06/26 06:18:08;;;;;;;5.63;3.03;;;21.70;97.30;;;;;;4924119;29;20411;-89
2023/06/26 06:20:35;;;;;;;5.47;3.00;;;21.80;97.30;;;;;;4917188;29;20424;-89
2023/06/26 06:23:00;;;;;;;31.40;3.90;;;21.80;97.30;;;;;;4926760;29;20568;-88
2023/06/26 06:25:31;;;;;;;5.43;3.10;;;21.90;97.30;;;;;;4924920;29;20434;-89
2023/06/26 06:27:59;;;;;;;6.30;3.53;;;22.00;97.30;;;;;;4917033;29;20606;-89
2023/06/26 06:30:25;;;;;;;6.87;3.10;;;22.00;97.20;;;;;;4925309;29;20472;-89
2023/06/26 06:32:52;;;;;;;3.03;2.83;;;22.10;97.30;;;;;;4931759;29;20430;-89
2023/06/26 06:35:18;;;;;;;5.00;3.40;;;22.20;97.30;;;;;;4919227;29;20169;-89
2023/06/26 06:37:49;;;;;;;5.00;3.13;;;22.20;96.90;;;;;;4930074;29;20423;-88
2023/06/26 06:40:15;;;;;;;5.53;2.40;;;22.30;96.50;;;;;;4926583;29;20461;-89
2023/06/26 06:42:40;;;;;;;4.37;3.07;;;22.30;95.30;;;;;;4930121;29;21013;-89
2023/06/26 06:45:06;;;;;;;4.97;3.77;;;22.40;95.50;;;;;;4913869;29;20506;-89
2023/06/26 06:47:32;;;;;;;4.33;3.83;;;22.50;95.70;;;;;;4914809;29;20188;-89
2023/06/26 06:50:07;;;;;;;5.57;4.13;;;22.50;95.80;;;;;;4926551;29;20215;-89
2023/06/26 06:52:40;;;;;;;4.00;3.27;;;22.60;95.70;;;;;;4929256;29;20452;-89
2023/06/26 06:55:09;;;;;;;3.53;2.43;;;22.70;95.80;;;;;;4933077;29;20460;-89
2023/06/26 06:57:39;;;;;;;2.73;2.53;;;22.80;95.50;;;;;;4936007;29;20431;-88
2023/06/26 07:00:12;;;;;;;5.30;3.63;;;22.90;96.10;;;;;;4936056;29;20431;-89
2023/06/26 07:02:39;;;;;;;3.90;2.93;;;23.00;96.00;;;;;;4935983;29;20507;-89
2023/06/26 07:05:09;;;;;;;4.47;3.43;;;23.10;95.90;;;;;;4925204;29;20437;-89
2023/06/26 07:07:40;;;;;;;2.37;2.20;;;23.10;96.00;;;;;;4918306;29;20463;-89
2023/06/26 07:10:10;;;;;;;3.83;2.93;;;23.20;95.70;;;;;;4932239;29;20448;-89
2023/06/26 07:12:36;;;;;;;3.17;2.27;;;23.20;95.60;;;;;;4935527;29;21024;-89
2023/06/26 07:15:04;;;;;;;3.17;2.63;;;23.30;95.50;;;;;;4935890;29;20452;-89
2023/06/26 07:17:30;;;;;;;12.33;3.40;;;23.40;94.90;;;;;;4935838;29;20180;-89
2023/06/26 07:19:58;;;;;;;6.53;3.27;;;23.50;94.50;;;;;;4927900;29;20446;-89
2023/06/26 07:22:23;;;;;;;5.33;3.60;;;23.60;94.80;;;;;;4935822;29;20539;-89
2023/06/26 07:24:49;;;;;;;5.33;3.17;;;23.70;94.20;;;;;;4932793;29;20866;-89
2023/06/26 07:27:18;;;;;;;2.40;2.23;;;23.80;94.00;;;;;;4935008;29;20184;-89
2023/06/26 07:29:43;;;;;;;4.37;2.97;;;23.90;93.60;;;;;;4918288;29;20185;-88
2023/06/26 07:32:09;;;;;;;6.07;4.30;;;23.90;93.70;;;;;;4932153;29;20474;-89
2023/06/26 07:34:34;;;;;;;6.60;2.80;;;24.00;93.30;;;;;;4934627;29;20188;-89
2023/06/26 07:37:00;;;;;;;5.57;3.23;;;24.10;93.30;;;;;;4924084;29;20192;-89
2023/06/26 07:39:33;;;;;;;5.10;3.33;;;24.20;93.50;;;;;;4932258;29;20196;-90
2023/06/26 07:42:01;;;;;;;2.37;2.10;;;24.30;93.50;;;;;;4935533;29;20200;-89
2023/06/26 07:44:29;;;;;;;3.83;2.77;;;24.30;93.20;;;;;;4928848;29;20420;-89
2023/06/26 07:46:57;;;;;;;3.90;2.90;;;24.40;94.00;;;;;;4915828;29;20432;-89
2023/06/26 07:49:22;;;;;;;4.87;3.00;;;24.50;93.80;;;;;;4935426;29;20536;-90
2023/06/26 07:51:48;;;;;;;12.60;3.97;;;24.60;93.70;;;;;;4935015;29;20471;-89
2023/06/26 07:54:13;;;;;;;5.80;3.57;;;24.70;93.20;;;;;;4922053;29;20184;-89
2023/06/26 07:56:59;;;;;;;4.10;2.20;;;24.80;92.30;;;;;;4934808;29;20175;-90
2023/06/26 07:59:33;;;;;;;4.50;2.50;;;24.90;91.90;;;;;;4935290;29;20682;-90
2023/06/26 08:01:59;;;;;;;3.27;2.30;;;25.00;90.00;;;;;;4906634;29;20486;-89
2023/06/26 08:04:31;;;;;;;4.13;3.20;;;25.10;89.20;;;;;;4927356;29;20432;-89
2023/06/26 08:07:01;;;;;;;3.67;2.80;;;25.20;88.90;;;;;;4922704;29;20236;-90
2023/06/26 08:09:30;;;;;;;6.07;3.10;;;25.30;89.60;;;;;;4920526;29;20436;-90
2023/06/26 08:12:03;;;;;;;4.37;3.40;;;25.40;89.10;;;;;;4924129;29;20567;-91
2023/06/26 08:14:32;;;;;;;13.50;4.50;;;25.50;88.50;;;;;;4915978;29;20476;-90
2023/06/26 08:17:00;;;;;;;3.77;3.53;;;25.60;87.70;;;;;;4930843;29;20456;-90
2023/06/26 08:19:26;;;;;;;3.80;3.17;;;25.70;87.90;;;;;;4931526;29;20424;-90
2023/06/26 08:21:51;;;;;;;3.17;2.93;;;25.80;88.00;;;;;;4924538;29;21030;-90
2023/06/26 08:24:19;;;;;;;6.83;2.53;;;25.90;87.90;;;;;;4920943;29;20264;-90
2023/06/26 08:26:52;;;;;;;3.50;2.23;;;26.00;88.00;;;;;;4933781;29;20206;-90
2023/06/26 08:29:20;;;;;;;8.53;4.40;;;26.10;88.80;;;;;;4921631;29;20432;-90
2023/06/26 08:31:50;;;;;;;2.83;2.63;;;26.10;87.50;;;;;;4932588;29;21011;-90
2023/06/26 08:34:33;;;;;;;2.67;2.40;;;26.20;88.20;;;;;;4929645;29;20960;-90
2023/06/26 08:37:02;;;;;;;4.17;3.60;;;26.30;88.30;;;;;;4915742;29;20974;-90
2023/06/26 08:39:33;;;;;;;2.67;2.50;;;26.40;87.10;;;;;;4934182;29;20994;-91
2023/06/26 08:42:02;;;;;;;3.13;2.80;;;26.50;87.90;;;;;;4934129;29;20439;-90
2023/06/26 08:44:30;;;;;;;4.60;2.97;;;26.60;87.90;;;;;;4934475;29;20465;-91
2023/06/26 08:47:21;;;;;;;3.10;2.87;;;26.70;87.90;;;;;;4918400;29;20785;-90
2023/06/26 08:49:59;;;;;;;6.60;3.23;;;26.80;88.00;;;;;;4917358;29;20439;-91
2023/06/26 08:53:22;;;;;;;8.83;3.80;;;26.80;86.70;;;;;;4927897;29;20448;-91
2023/06/26 08:55:53;;;;;;;5.97;2.70;;;27.00;87.10;;;;;;4922734;29;20428;-91
2023/06/26 08:58:21;;;;;;;2.60;2.40;;;27.10;86.90;;;;;;4926638;29;20953;-91
2023/06/26 09:00:49;;;;;;;2.80;2.63;;;27.20;86.60;;;;;;4926134;29;20456;-90
2023/06/26 09:03:42;;;;;;;2.67;1.87;;;27.30;87.10;;;;;;4921721;29;20483;-91
2023/06/26 09:06:11;;;;;;;12.23;3.57;;;27.40;86.70;;;;;;4912339;29;20522;-91
2023/06/26 09:09:03;;;;;;;2.90;2.70;;;27.40;86.70;;;;;;4926129;29;20432;-90
2023/06/26 09:11:32;;;;;;;6.10;3.47;;;27.50;87.00;;;;;;4933736;29;21036;-91
2023/06/26 09:14:04;;;;;;;4.60;2.37;;;27.60;86.00;;;;;;4923450;29;20542;-92
2023/06/26 09:16:30;;;;;;;5.13;3.23;;;27.70;85.90;;;;;;4914764;29;20471;-91
2023/06/26 09:19:22;;;;;;;10.20;3.50;;;27.80;85.00;;;;;;4931812;29;20451;-90
2023/06/26 09:21:54;;;;;;;6.53;3.97;;;27.80;85.00;;;;;;4906927;29;20220;-91
2023/06/26 09:24:22;;;;;;;5.33;4.57;;;28.00;83.90;;;;;;4922072;29;20424;-91
2023/06/26 09:26:51;;;;;;;2.73;2.53;;;28.10;84.00;;;;;;4915763;29;20906;-91
2023/06/26 09:29:20;;;;;;;4.33;2.80;;;28.20;82.80;;;;;;4932779;29;20484;-91
2023/06/26 09:32:23;;;;;;;3.93;2.20;;;28.30;81.50;;;;;;4924703;29;20480;-91
2023/06/26 09:35:13;;;;;;;4.53;2.63;;;28.40;80.80;;;;;;4874904;29;20428;-91
2023/06/26 09:37:41;;;;;;;6.57;3.10;;;28.50;80.90;;;;;;4919255;29;20872;-90
2023/06/26 09:40:10;;;;;;;3.87;3.13;;;28.60;82.10;;;;;;4918372;29;20428;-92
2023/06/26 09:43:13;;;;;;;5.43;3.30;;;28.60;81.80;;;;;;4926139;29;20969;-92
2023/06/26 09:45:42;;;;;;;2.33;2.17;;;28.70;81.50;;;;;;4909296;29;20428;-89
2023/06/26 09:48:14;;;;;;;6.30;3.70;;;28.70;79.90;;;;;;4921807;29;20421;-91
2023/06/26 09:50:42;;;;;;;2.90;2.03;;;28.80;79.40;;;;;;4922122;29;20475;-92
2023/06/26 09:53:13;;;;;;;2.90;2.27;;;28.90;79.10;;;;;;4933956;29;20436;-92
2023/06/26 09:55:51;;;;;;;3.93;2.57;;;29.00;79.30;;;;;;4925911;29;20437;-91
2023/06/26 09:58:39;;;;;;;5.10;2.77;;;29.10;79.40;;;;;;4928581;29;20921;-92
2023/06/26 10:01:21;;;;;;;3.17;2.47;;;29.20;78.80;;;;;;4917076;29;20487;-92
2023/06/26 10:03:50;;;;;;;2.80;2.50;;;29.20;78.70;;;;;;4924837;29;20428;-92
2023/06/26 10:07:03;;;;;;;4.23;3.43;;;29.30;80.10;;;;;;4913889;29;20540;-92
2023/06/26 10:09:32;;;;;;;3.63;2.87;;;29.40;79.70;;;;;;4914449;29;20514;-91
2023/06/26 10:12:31;;;;;;;5.50;2.67;;;29.50;79.40;;;;;;4934627;29;20993;-91
2023/06/26 10:15:04;;;;;;;3.50;2.70;;;29.70;78.70;;;;;;4917969;29;20417;-92
2023/06/26 10:20:44;;;;;;;2.47;2.27;;;29.90;79.20;;;;;;4908999;29;20449;-90
2023/06/26 10:23:13;;;;;;;3.23;2.50;;;29.90;77.70;;;;;;4898050;29;20481;-92
2023/06/26 10:26:02;;;;;;;4.13;2.93;;;29.90;77.30;;;;;;4878045;29;20430;-91
2023/06/26 10:28:33;;;;;;;2.27;2.07;;;29.90;78.50;;;;;;4898987;29;20435;-91
2023/06/26 10:31:11;;;;;;;4.33;3.10;;;30.10;77.80;;;;;;4913440;29;20779;-91
2023/06/26 10:33:40;;;;;;;3.50;2.27;;;30.20;76.40;;;;;;4929615;29;20427;-91
2023/06/26 10:36:30;;;;;;;4.73;3.27;;;30.20;75.90;;;;;;4925398;29;20502;-92
2023/06/26 10:39:05;;;;;;;2.20;2.03;;;30.20;76.10;;;;;;4944597;29;20527;-92
2023/06/26 10:41:42;;;;;;;5.10;3.37;;;30.30;76.00;;;;;;4936194;29;20447;-92
2023/06/26 10:44:46;;;;;;;;;;;;;;;;;;;;;
2023/06/26 10:47:01;;;;;;;4.00;2.97;;;30.10;76.40;;;;;;4912775;29;20483;-92
2023/06/26 10:49:31;;;;;;;3.57;2.30;;;30.20;75.90;;;;;;4921391;29;20508;-92
2023/06/26 10:52:01;;;;;;;3.50;2.50;;;30.30;76.50;;;;;;4930044;29;20255;-91
2023/06/26 10:54:43;;;;;;;4.10;2.23;;;30.40;75.60;;;;;;4930607;29;20429;-92
2023/06/26 10:57:11;;;;;;;4.27;2.43;;;30.50;73.40;;;;;;4909270;29;20416;-93
2023/06/26 10:59:40;;;;;;;3.47;2.37;;;30.60;75.40;;;;;;4925321;29;20450;-91
2023/06/26 11:02:16;;;;;;;4.27;3.00;;;30.70;76.00;;;;;;4924972;29;20475;-91
2023/06/26 11:04:53;;;;;;;1.70;1.53;;;30.80;73.50;;;;;;4933575;29;20953;-91
2023/06/26 11:07:21;;;;;;;9.93;2.73;;;30.90;74.00;;;;;;4915066;29;20515;-91
2023/06/26 11:10:00;;;;;;;3.90;2.13;;;31.00;73.60;;;;;;4932526;29;20467;-92
2023/06/26 11:12:47;;;;;;;4.83;2.60;;;31.20;74.30;;;;;;4934764;28;20472;-92
2023/06/26 11:15:15;;;;;;;5.97;3.10;;;31.10;75.00;;;;;;4919198;29;20428;-92
2023/06/26 11:17:42;;;;;;;3.13;2.80;;;31.00;74.40;;;;;;4918731;29;20949;-91
2023/06/26 11:20:12;;;;;;;4.13;2.63;;;30.90;74.40;;;;;;4926150;29;20428;-92
2023/06/26 11:22:39;;;;;;;2.90;2.63;;;30.90;73.50;;;;;;4926189;29;21039;-91
2023/06/26 11:25:08;;;;;;;2.23;1.90;;;30.90;75.00;;;;;;4917542;29;20416;-91
2023/06/26 11:27:41;;;;;;;3.63;3.43;;;31.00;74.40;;;;;;4931826;29;20411;-91
2023/06/26 11:30:09;;;;;;;3.23;2.97;;;31.10;73.70;;;;;;4917062;29;20945;-91
2023/06/26 11:32:35;;;;;;;2.37;2.10;;;31.20;74.80;;;;;;4933017;29;20807;-91
2023/06/26 11:35:01;;;;;;;4.80;2.63;;;31.30;74.30;;;;;;4916896;29;20858;-92
2023/06/26 11:37:28;;;;;;;3.73;3.27;;;31.30;72.70;;;;;;4911387;29;20421;-91
2023/06/26 11:39:54;;;;;;;4.50;2.90;;;31.20;74.10;;;;;;4936534;29;20231;-91
2023/06/26 11:42:20;;;;;;;5.60;3.13;;;31.30;73.00;;;;;;4932052;29;20452;-91
2023/06/26 11:44:46;;;;;;;3.80;2.87;;;31.40;73.30;;;;;;4935777;29;20233;-91
2023/06/26 11:47:19;;;;;;;3.40;2.23;;;31.50;72.60;;;;;;4929738;29;20837;-91
2023/06/26 11:49:51;;;;;;;5.50;3.20;;;31.70;72.20;;;;;;4913621;29;20207;-91
2023/06/26 11:52:19;;;;;;;2.90;2.70;;;31.80;72.80;;;;;;4917627;29;20472;-91
2023/06/26 11:54:45;;;;;;;3.53;2.90;;;31.80;73.10;;;;;;4917312;29;20432;-90
2023/06/26 11:57:17;;;;;;;1.90;1.80;;;31.70;72.70;;;;;;4918544;29;20462;-91
2023/06/26 11:59:42;;;;;;;9.17;3.17;;;31.70;73.30;;;;;;4913629;29;21047;-90
2023/06/26 12:02:10;;;;;;;9.23;3.30;;;31.80;73.10;;;;;;4930251;29;20468;-92
2023/06/26 12:04:38;;;;;;;2.37;2.17;;;31.70;73.00;;;;;;4930481;29;20189;-90
2023/06/26 12:07:07;;;;;;;3.00;2.80;;;31.80;71.60;;;;;;4926583;29;20424;-90
2023/06/26 12:09:33;;;;;;;3.13;2.33;;;31.90;71.50;;;;;;4934616;29;20450;-90
2023/06/26 12:12:03;;;;;;;4.30;3.30;;;31.90;72.50;;;;;;4926115;29;20480;-91
2023/06/26 12:14:29;;;;;;;3.60;2.60;;;31.70;72.00;;;;;;4920496;29;20417;-92
2023/06/26 12:16:55;;;;;;;1.80;1.70;;;31.50;70.70;;;;;;4923334;29;20420;-92
2023/06/26 12:19:30;;;;;;;3.30;2.50;;;31.40;72.20;;;;;;4931015;29;20428;-93
2023/06/26 12:21:56;;;;;;;4.10;2.30;;;31.40;73.20;;;;;;4923664;29;20239;-91
2023/06/26 12:24:23;;;;;;;3.67;2.93;;;31.40;73.90;;;;;;4921560;29;20448;-91
2023/06/26 12:26:55;;;;;;;1.87;1.50;;;31.40;73.90;;;;;;4923492;29;20188;-91
2023/06/26 12:29:22;;;;;;;2.90;2.77;;;31.40;73.20;;;;;;4917142;29;20436;-91
2023/06/26 12:31:52;;;;;;;2.30;1.83;;;31.30;72.40;;;;;;4914084;29;20476;-90
2023/06/26 12:34:26;;;;;;;2.30;2.00;;;31.30;73.50;;;;;;4913027;29;20418;-90
2023/06/26 12:36:52;;;;;;;3.07;2.90;;;31.30;73.20;;;;;;4931408;29;20566;-91
2023/06/26 12:39:21;;;;;;;4.13;2.90;;;31.40;74.80;;;;;;4915301;29;20484;-90
2023/06/26 12:41:59;;;;;;;2.27;1.93;;;31.50;74.90;;;;;;4914885;29;20299;-90
2023/06/26 12:44:27;;;;;;;3.63;2.20;;;31.70;73.20;;;;;;4917054;29;20436;-90
2023/06/26 12:47:01;;;;;;;5.40;2.23;;;31.90;73.50;;;;;;4917424;29;20420;-90
2023/06/26 12:49:35;;;;;;;5.40;4.30;;;32.10;73.70;;;;;;4917694;29;20420;-90
2023/06/26 12:52:13;;;;;;;2.90;2.20;;;32.30;72.60;;;;;;4917051;29;20570;-90
2023/06/26 12:54:40;;;;;;;3.03;2.10;;;32.40;72.60;;;;;;4913590;29;20462;-89
2023/06/26 12:57:06;;;;;;;1.90;1.80;;;32.50;69.60;;;;;;4912290;29;20487;-90
2023/06/26 12:59:33;;;;;;;3.30;2.90;;;32.60;70.60;;;;;;4915752;29;20460;-89
2023/06/26 13:01:59;;;;;;;2.80;2.70;;;32.70;69.60;;;;;;4916495;29;20252;-90
2023/06/26 13:04:25;;;;;;;2.77;1.80;;;32.70;70.70;;;;;;4915982;29;20970;-91
2023/06/26 13:06:51;;;;;;;2.70;2.50;;;32.80;69.20;;;;;;4913456;29;20427;-89
2023/06/26 13:09:17;;;;;;;2.23;1.77;;;32.80;69.70;;;;;;4913082;29;20572;-90
2023/06/26 13:11:43;;;;;;;3.47;2.60;;;32.80;68.70;;;;;;4912588;29;20472;-91
2023/06/26 13:14:08;;;;;;;4.20;2.20;;;32.80;68.20;;;;;;4917889;29;20424;-90
2023/06/26 13:16:34;;;;;;;4.03;2.70;;;32.80;68.90;;;;;;4908685;29;20213;-90
2023/06/26 13:19:03;;;;;;;3.07;2.63;;;32.80;69.10;;;;;;4916546;29;20562;-90
2023/06/26 13:21:29;;;;;;;3.30;2.50;;;32.70;67.90;;;;;;4913957;29;20208;-91
2023/06/26 13:23:57;;;;;;;3.53;2.40;;;32.70;68.90;;;;;;4914528;29;20986;-90
2023/06/26 13:26:23;;;;;;;2.93;2.50;;;32.60;68.60;;;;;;4905208;29;20192;-90
2023/06/26 13:28:49;;;;;;;3.17;2.60;;;32.50;68.90;;;;;;4915112;29;20442;-90
2023/06/26 13:31:17;;;;;;;1.80;1.77;;;32.40;69.20;;;;;;4919894;29;20256;-91
2023/06/26 13:33:44;;;;;;;3.50;2.80;;;32.60;68.50;;;;;;4919398;29;20429;-90
2023/06/26 13:36:21;;;;;;;2.70;1.57;;;32.70;67.30;;;;;;4900079;29;20907;-90
2023/06/26 13:38:54;;;;;;;2.67;2.47;;;32.70;67.50;;;;;;4916233;29;20421;-90
2023/06/26 13:41:22;;;;;;;5.17;3.07;;;32.70;68.30;;;;;;4910072;29;20455;-90
2023/06/26 13:43:48;;;;;;;6.90;2.83;;;32.80;67.30;;;;;;4906902;29;20855;-90
2023/06/26 13:46:24;;;;;;;3.27;1.90;;;32.90;67.50;;;;;;4910103;29;20444;-91
2023/06/26 13:48:52;;;;;;;5.33;2.27;;;33.00;68.20;;;;;;4917220;29;20599;-89
2023/06/26 13:51:17;;;;;;;4.57;2.57;;;33.00;67.70;;;;;;4915865;29;20499;-91
2023/06/26 13:53:43;;;;;;;2.67;1.90;;;33.00;67.40;;;;;;4915522;29;20523;-90
2023/06/26 13:56:08;;;;;;;4.60;2.63;;;32.80;68.50;;;;;;4913014;29;20252;-91
2023/06/26 13:58:37;;;;;;;2.83;2.60;;;32.70;68.70;;;;;;4914271;29;20180;-90
2023/06/26 14:01:04;;;;;;;3.07;2.87;;;32.50;68.50;;;;;;4917714;29;20277;-91
2023/06/26 14:03:29;;;;;;;13.03;2.27;;;32.30;67.80;;;;;;4913776;29;20431;-91
2023/06/26 14:05:57;;;;;;;4.37;2.50;;;32.00;67.80;;;;;;4919128;29;20432;-91
2023/06/26 14:09:00;;;;;;;3.27;2.90;;;31.70;68.10;;;;;;4913088;29;20235;-92
2023/06/26 14:11:33;;;;;;;12.10;4.87;;;31.40;74.50;;;;;;4915624;29;20487;-92
2023/06/26 14:14:02;;;;;;;4.87;3.43;;;30.20;80.90;;;;;;4912034;29;20569;-89
2023/06/26 14:16:34;;;;;;;4.53;4.23;;;28.90;85.80;;;;;;4909451;29;20954;-90
2023/06/26 14:19:04;;;;;;;5.93;4.40;;;27.90;92.30;;;;;;4909538;29;20468;-88
2023/06/26 14:21:33;;;;;;;4.97;3.63;;;26.80;94.90;;;;;;4910811;29;20488;-89
2023/06/26 14:24:33;;;;;;;8.47;4.10;;;26.10;97.10;;;;;;4927984;29;20965;-89
2023/06/26 14:27:21;;;;;;;7.80;5.13;;;25.70;97.30;;;;;;4912118;29;20432;-88
2023/06/26 14:30:13;;;;;;;10.53;5.37;;;25.30;97.30;;;;;;4912421;29;20515;-91
2023/06/26 14:32:53;;;;;;;6.23;4.50;;;25.00;97.30;;;;;;4907930;29;20449;-88
2023/06/26 14:35:22;;;;;;;5.00;3.87;;;25.00;97.30;;;;;;4913024;29;20425;-87
2023/06/26 14:37:50;;;;;;;6.00;4.73;;;24.90;97.30;;;;;;4909935;29;20455;-89
2023/06/26 14:40:23;;;;;;;9.30;5.23;;;24.90;97.30;;;;;;4916009;29;20439;-88
2023/06/26 14:42:52;;;;;;;7.60;5.43;;;24.80;97.30;;;;;;4914010;29;20481;-88
2023/06/26 14:45:21;;;;;;;5.90;3.60;;;24.80;97.30;;;;;;4906505;29;20452;-88
2023/06/26 14:47:46;;;;;;;11.53;5.70;;;24.80;97.30;;;;;;4913249;29;20443;-89
2023/06/26 14:50:12;;;;;;;6.50;5.50;;;24.70;97.30;;;;;;4914793;29;20898;-89
2023/06/26 14:52:40;;;;;;;7.43;5.40;;;24.70;97.30;;;;;;4915368;29;20200;-89
2023/06/26 14:55:22;;;;;;;7.33;5.03;;;24.80;97.30;;;;;;4912787;29;20208;-88
2023/06/26 14:58:23;;;;;;;5.93;5.37;;;25.00;97.30;;;;;;4907252;29;20433;-91
2023/06/26 15:00:52;;;;;;;13.67;4.97;;;25.10;97.30;;;;;;4903579;29;20445;-89
2023/06/26 15:03:20;;;;;;;4.60;3.40;;;25.30;97.30;;;;;;4910752;29;20451;-90
2023/06/26 15:06:13;;;;;;;6.70;4.37;;;25.40;97.30;;;;;;4910901;29;20496;-92
2023/06/26 15:08:42;;;;;;;7.33;6.10;;;25.50;97.30;;;;;;4908328;29;20468;-90
2023/06/26 15:15:04;;;;;;;9.07;4.30;;;25.50;97.20;;;;;;4900575;29;20428;-90
2023/06/26 15:17:32;;;;;;;6.70;4.23;;;25.50;97.00;;;;;;4877451;29;20430;-91
2023/06/26 15:20:02;;;;;;;21.47;4.37;;;25.60;96.40;;;;;;4889031;29;20928;-92
2023/06/26 15:22:32;;;;;;;3.90;3.27;;;25.60;96.00;;;;;;4899603;29;20496;-92
2023/06/26 15:25:00;;;;;;;11.40;5.30;;;25.60;95.90;;;;;;4916208;29;20424;-92
2023/06/26 15:27:33;;;;;;;11.37;3.97;;;25.60;95.00;;;;;;4909241;29;20802;-92
2023/06/26 15:30:02;;;;;;;4.53;3.50;;;25.50;94.60;;;;;;4918983;29;20502;-91
2023/06/26 15:32:30;;;;;;;4.00;3.83;;;25.50;94.80;;;;;;4917998;29;20504;-93
2023/06/26 15:35:00;;;;;;;4.50;2.80;;;25.50;94.20;;;;;;4923168;29;20459;-94
2023/06/26 15:37:33;;;;;;;4.80;2.63;;;25.40;94.80;;;;;;4941396;29;20452;-93
2023/06/26 15:40:23;;;;;;;5.43;3.20;;;25.40;93.60;;;;;;4938078;29;20479;-94
2023/06/26 15:43:33;;;;;;;4.87;3.90;;;25.30;93.60;;;;;;4927217;29;20932;-91
2023/06/26 15:46:13;;;;;;;5.40;3.60;;;25.20;94.30;;;;;;4861560;29;20427;-92
2023/06/26 15:49:02;;;;;;;3.80;3.10;;;25.00;93.80;;;;;;4863270;29;20421;-92
2023/06/26 15:51:45;;;;;;;4.47;3.13;;;24.90;94.00;;;;;;4834529;29;20536;-91
2023/06/26 15:54:33;;;;;;;3.40;3.20;;;24.70;94.20;;;;;;4825514;29;20829;-91
2023/06/26 15:57:14;;;;;;;5.00;3.53;;;24.50;94.60;;;;;;4895978;29;20452;-92
2023/06/26 15:59:43;;;;;;;5.07;3.27;;;24.50;95.30;;;;;;4916428;29;20462;-91
2023/06/26 16:02:12;;;;;;;3.17;2.27;;;24.40;95.40;;;;;;4915342;29;20527;-92
2023/06/26 16:04:43;;;;;;;3.93;3.27;;;24.40;95.80;;;;;;4910159;29;20927;-89
2023/06/26 16:07:14;;;;;;;3.83;3.63;;;24.40;96.10;;;;;;4906890;29;20452;-92
2023/06/26 16:10:14;;;;;;;4.97;2.80;;;24.40;96.30;;;;;;4921473;29;20425;-92
2023/06/26 16:13:01;;;;;;;6.60;2.90;;;24.50;96.30;;;;;;4911873;29;20959;-91
2023/06/26 16:15:28;;;;;;;4.17;3.00;;;24.50;95.90;;;;;;4940999;23;20503;-91
2023/06/26 16:17:54;;;;;;;12.10;3.00;;;24.50;95.80;;;;;;4931663;29;20437;-91
2023/06/26 16:20:22;;;;;;;7.60;3.50;;;24.60;96.10;;;;;;4934684;29;20539;-91
2023/06/26 16:22:48;;;;;;;3.30;3.10;;;24.60;95.90;;;;;;4935460;29;20655;-90
2023/06/26 16:25:13;;;;;;;4.57;3.20;;;24.50;96.00;;;;;;4932288;29;20451;-93
2023/06/26 16:27:43;;;;;;;5.80;2.93;;;24.50;96.20;;;;;;4926467;29;20199;-91
2023/06/26 16:30:09;;;;;;;13.10;4.00;;;24.40;96.10;;;;;;4916635;29;20192;-91
2023/06/26 16:32:34;;;;;;;4.00;3.23;;;24.30;96.00;;;;;;4921210;29;20464;-92
2023/06/26 16:35:00;;;;;;;2.90;2.70;;;24.20;95.90;;;;;;4924499;29;20462;-92
2023/06/26 16:37:26;;;;;;;4.50;3.37;;;24.10;96.20;;;;;;4923303;29;20617;-92
2023/06/26 16:39:51;;;;;;;9.93;4.70;;;24.10;96.30;;;;;;4919619;29;20192;-91
2023/06/26 16:42:20;;;;;;;5.50;3.70;;;24.00;96.20;;;;;;4928376;29;20184;-92
2023/06/26 16:44:45;;;;;;;10.40;3.83;;;23.90;96.50;;;;;;4928083;29;20289;-92
2023/06/26 16:47:16;;;;;;;9.30;5.50;;;24.00;96.70;;;;;;4922521;29;20507;-90
2023/06/26 16:49:42;;;;;;;4.70;3.67;;;23.90;96.70;;;;;;4929857;29;20188;-91
2023/06/26 16:52:08;;;;;;;8.00;3.53;;;23.90;96.40;;;;;;4932332;29;20682;-91
2023/06/26 16:54:33;;;;;;;8.60;3.20;;;23.80;96.70;;;;;;4923404;29;20543;-91
2023/06/26 16:56:59;;;;;;;4.23;3.43;;;23.80;96.50;;;;;;4922368;29;20199;-90
2023/06/26 16:59:26;;;;;;;4.40;2.47;;;23.70;96.80;;;;;;4926190;29;20563;-91
2023/06/26 17:01:53;;;;;;;10.60;3.40;;;23.80;96.90;;;;;;4926411;29;20235;-91
2023/06/26 17:04:20;;;;;;;4.80;2.73;;;23.80;96.80;;;;;;4923887;29;20444;-92
2023/06/26 17:06:45;;;;;;;6.10;3.50;;;23.80;97.00;;;;;;4926810;29;20417;-91
2023/06/26 17:09:11;;;;;;;6.30;3.40;;;23.80;97.10;;;;;;4922576;29;20431;-91
2023/06/26 17:11:37;;;;;;;6.60;3.43;;;23.90;97.00;;;;;;4930032;29;20200;-90
2023/06/26 17:14:03;;;;;;;3.57;2.80;;;23.90;96.60;;;;;;4923977;29;20276;-90
2023/06/26 17:16:34;;;;;;;9.07;3.93;;;24.00;96.40;;;;;;4924888;29;20475;-91